createdAt,value
2018-07-12T00:00:49.036Z,3.40
2018-07-12T00:03:16.537Z,3.23
2018-07-12T00:05:44.731Z,3.20
2018-07-12T00:08:12.311Z,3.83
2018-07-12T00:10:40.448Z,3.20
2018-07-12T00:13:08.015Z,3.10
2018-07-12T00:15:35.926Z,3.37
2018-07-12T00:18:03.750Z,3.67
2018-07-12T00:20:31.567Z,3.30
2018-07-12T00:23:00.000Z,3.27
2018-07-12T00:25:27.592Z,3.30
2018-07-12T00:27:55.160Z,3.77
2018-07-12T00:30:22.756Z,3.60
2018-07-12T00:32:50.367Z,2.87
2018-07-12T00:35:17.961Z,3.40
2018-07-12T00:37:45.527Z,3.90
2018-07-12T00:40:14.604Z,3.60
2018-07-12T00:42:42.446Z,3.73
2018-07-12T00:45:10.054Z,3.90
2018-07-12T00:47:37.631Z,3.83
2018-07-12T00:50:05.320Z,4.00
2018-07-12T00:52:33.259Z,3.23
2018-07-12T00:55:00.821Z,3.40
2018-07-12T00:57:28.400Z,3.73
2018-07-12T00:59:56.638Z,3.40
2018-07-12T01:02:24.239Z,3.50
2018-07-12T01:04:51.827Z,3.20
2018-07-12T01:07:19.428Z,3.33
2018-07-12T01:09:46.991Z,3.50
2018-07-12T01:12:14.570Z,3.53
2018-07-12T01:14:42.149Z,3.53
2018-07-12T01:17:09.918Z,3.80
2018-07-12T01:19:37.224Z,3.97
2018-07-12T01:22:04.819Z,3.07
2018-07-12T01:24:32.847Z,3.77
2018-07-12T01:27:00.457Z,3.20
2018-07-12T01:29:28.023Z,3.60
2018-07-12T01:31:55.608Z,3.67
2018-07-12T01:34:23.175Z,3.40
2018-07-12T01:36:50.762Z,3.60
2018-07-12T01:39:18.331Z,3.20
2018-07-12T01:41:45.932Z,3.10
2018-07-12T01:44:13.987Z,3.47
2018-07-12T01:46:44.197Z,3.30
2018-07-12T01:49:12.071Z,3.23
2018-07-12T01:51:39.684Z,2.93
2018-07-12T01:54:07.258Z,3.13
2018-07-12T01:56:34.845Z,2.80
2018-07-12T01:59:02.442Z,2.80
2018-07-12T02:01:30.029Z,3.47
2018-07-12T02:03:57.636Z,3.20
2018-07-12T02:06:29.587Z,2.87
2018-07-12T02:08:57.154Z,2.97
2018-07-12T02:11:24.744Z,3.17
2018-07-12T02:13:53.076Z,2.73
2018-07-12T02:16:21.824Z,2.87
2018-07-12T02:18:50.813Z,2.90
2018-07-12T02:21:18.537Z,3.30
2018-07-12T02:23:46.105Z,3.20
2018-07-12T02:26:14.699Z,2.97
2018-07-12T02:28:42.691Z,3.47
2018-07-12T02:31:10.289Z,3.00
2018-07-12T02:33:37.886Z,2.90
2018-07-12T02:36:05.477Z,2.90
2018-07-12T02:38:33.093Z,2.80
2018-07-12T02:41:01.608Z,3.10
2018-07-12T02:43:29.495Z,3.30
2018-07-12T02:45:57.067Z,2.93
2018-07-12T02:48:24.915Z,3.53
2018-07-12T02:50:52.468Z,2.60
2018-07-12T02:53:20.265Z,2.93
2018-07-12T02:55:48.558Z,2.73
2018-07-12T02:58:16.542Z,3.00
2018-07-12T03:00:44.104Z,3.40
2018-07-12T03:03:11.704Z,2.67
2018-07-12T03:05:39.049Z,3.20
2018-07-12T03:08:06.453Z,3.07
2018-07-12T03:10:35.363Z,2.73
2018-07-12T03:13:02.716Z,2.93
2018-07-12T03:15:31.398Z,3.30
2018-07-12T03:17:59.548Z,3.13
2018-07-12T03:20:27.252Z,2.60
2018-07-12T03:22:54.872Z,3.30
2018-07-12T03:25:22.455Z,2.77
2018-07-12T03:27:50.286Z,3.63
2018-07-12T03:30:17.851Z,2.73
2018-07-12T03:32:46.293Z,2.70
2018-07-12T03:35:14.848Z,3.20
2018-07-12T03:37:42.880Z,2.80
2018-07-12T03:40:10.447Z,3.43
2018-07-12T03:42:38.052Z,3.33
2018-07-12T03:45:06.110Z,3.00
2018-07-12T03:47:33.733Z,3.30
2018-07-12T03:50:01.912Z,2.90
2018-07-12T03:52:29.511Z,3.03
2018-07-12T03:54:57.645Z,3.30
2018-07-12T03:57:25.237Z,3.13
2018-07-12T03:59:52.989Z,2.70
2018-07-12T04:02:20.571Z,3.13
2018-07-12T04:04:53.477Z,2.90
2018-07-12T04:07:21.085Z,3.20
2018-07-12T04:09:48.663Z,2.70
2018-07-12T04:12:16.262Z,3.10
2018-07-12T04:14:46.472Z,3.00
2018-07-12T04:17:19.655Z,2.83
2018-07-12T04:19:47.223Z,2.80
2018-07-12T04:22:14.926Z,2.90
2018-07-12T04:24:42.859Z,3.33
2018-07-12T04:27:10.219Z,3.13
2018-07-12T04:29:37.795Z,3.33
2018-07-12T04:32:05.410Z,3.30
2018-07-12T04:34:32.773Z,3.00
2018-07-12T04:37:00.321Z,3.67
2018-07-12T04:39:27.951Z,3.40
2018-07-12T04:41:55.561Z,3.10
2018-07-12T04:44:23.544Z,3.60
2018-07-12T04:46:51.904Z,3.10
2018-07-12T04:49:20.190Z,3.73
2018-07-12T04:51:49.508Z,3.87
2018-07-12T04:54:17.112Z,3.10
2018-07-12T04:56:44.690Z,3.77
2018-07-12T04:59:13.681Z,2.90
2018-07-12T05:01:41.885Z,3.20
2018-07-12T05:04:09.455Z,3.50
2018-07-12T05:06:36.992Z,3.13
2018-07-12T05:09:06.651Z,3.67
2018-07-12T05:11:33.944Z,3.20
2018-07-12T05:14:01.829Z,4.33
2018-07-12T05:16:29.504Z,3.70
2018-07-12T05:18:57.258Z,3.20
2018-07-12T05:21:24.548Z,4.20
2018-07-12T05:23:52.123Z,4.10
2018-07-12T05:26:19.794Z,3.60
2018-07-12T05:28:47.370Z,3.97
2018-07-12T05:31:15.264Z,3.83
2018-07-12T05:33:43.851Z,3.23
2018-07-12T05:36:15.173Z,3.53
2018-07-12T05:38:43.268Z,3.73
2018-07-12T05:41:11.356Z,3.70
2018-07-12T05:43:39.467Z,3.50
2018-07-12T05:46:07.873Z,4.10
2018-07-12T05:48:36.264Z,3.90
2018-07-12T05:51:04.457Z,4.10
2018-07-12T05:53:32.553Z,4.10
2018-07-12T05:56:00.915Z,3.80
2018-07-12T05:58:29.023Z,4.30
2018-07-12T06:00:57.418Z,3.67
2018-07-12T06:03:25.812Z,4.40
2018-07-12T06:05:53.897Z,4.67
2018-07-12T06:08:21.999Z,4.37
2018-07-12T06:10:50.072Z,4.30
2018-07-12T06:13:18.586Z,4.30
2018-07-12T06:15:46.591Z,4.53
2018-07-12T06:18:14.688Z,3.83
2018-07-12T06:20:42.786Z,4.50
2018-07-12T06:23:11.659Z,4.40
2018-07-12T06:25:39.735Z,3.80
2018-07-12T06:28:07.807Z,3.77
2018-07-12T06:30:35.932Z,3.70
2018-07-12T06:33:04.616Z,4.70
2018-07-12T06:35:32.735Z,4.43
2018-07-12T06:38:00.815Z,4.13
2018-07-12T06:40:28.931Z,3.87
2018-07-12T06:42:57.025Z,4.67
2018-07-12T06:45:25.159Z,4.60
2018-07-12T06:47:53.407Z,4.23
2018-07-12T06:50:21.827Z,4.17
2018-07-12T06:52:49.989Z,3.77
2018-07-12T06:55:18.106Z,4.10
2018-07-12T06:57:46.194Z,4.40
2018-07-12T07:00:14.602Z,4.40
2018-07-12T07:02:42.692Z,4.50
2018-07-12T07:05:10.806Z,3.80
2018-07-12T07:07:39.218Z,3.70
2018-07-12T07:10:07.311Z,3.93
2018-07-12T07:12:35.671Z,4.47
2018-07-12T07:15:04.154Z,4.10
2018-07-12T07:17:32.251Z,4.83
2018-07-12T07:20:00.359Z,4.80
2018-07-12T07:22:28.458Z,4.37
2018-07-12T07:24:56.551Z,5.10
2018-07-12T07:27:24.623Z,5.00
2018-07-12T07:29:52.720Z,5.00
2018-07-12T07:32:20.820Z,6.97
2018-07-12T07:34:48.938Z,8.37
2018-07-12T07:37:17.423Z,9.57
2018-07-12T07:39:45.531Z,10.50
2018-07-12T07:42:13.599Z,9.10
2018-07-12T07:44:41.743Z,8.80
2018-07-12T07:47:09.836Z,8.40
2018-07-12T07:49:38.049Z,9.00
2018-07-12T07:52:06.131Z,7.53
2018-07-12T07:54:34.528Z,8.30
2018-07-12T07:57:02.631Z,8.20
2018-07-12T07:59:30.787Z,7.87
2018-07-12T08:01:58.955Z,8.27
2018-07-12T08:04:27.039Z,8.13
2018-07-12T08:06:55.136Z,7.30
2018-07-12T08:09:23.307Z,8.27
2018-07-12T08:11:51.471Z,8.17
2018-07-12T08:14:19.539Z,7.33
2018-07-12T08:16:47.631Z,7.60
2018-07-12T08:19:15.698Z,7.83
2018-07-12T08:21:43.808Z,8.60
2018-07-12T08:24:11.883Z,8.00
2018-07-12T08:26:39.974Z,8.13
2018-07-12T08:29:08.349Z,8.30
2018-07-12T08:31:36.771Z,7.10
2018-07-12T08:34:04.860Z,6.80
2018-07-12T08:36:32.963Z,7.00
2018-07-12T08:39:01.128Z,6.43
2018-07-12T08:41:29.239Z,7.37
2018-07-12T08:43:57.307Z,8.50
2018-07-12T08:46:25.692Z,8.60
2018-07-12T08:48:53.832Z,8.47
2018-07-12T08:51:21.895Z,9.53
2018-07-12T08:53:49.959Z,7.70
2018-07-12T08:56:18.063Z,9.33
2018-07-12T08:58:46.142Z,7.73
2018-07-12T09:01:14.267Z,7.00
2018-07-12T09:03:42.331Z,7.97
2018-07-12T09:06:10.433Z,8.60
2018-07-12T09:08:38.502Z,7.90
2018-07-12T09:11:06.695Z,7.77
2018-07-12T09:13:34.776Z,8.47
2018-07-12T09:16:02.887Z,9.33
2018-07-12T09:18:30.975Z,8.17
2018-07-12T09:20:59.067Z,7.73
2018-07-12T09:23:27.135Z,7.30
2018-07-12T09:25:55.290Z,7.90
2018-07-12T09:28:23.372Z,6.30
2018-07-12T09:30:51.798Z,7.30
2018-07-12T09:33:19.888Z,6.00
2018-07-12T09:35:47.999Z,5.77
2018-07-12T09:38:27.643Z,5.33
2018-07-12T09:40:55.755Z,6.00
2018-07-12T09:43:23.848Z,5.90
2018-07-12T09:45:51.952Z,5.40
2018-07-12T09:48:20.064Z,9.30
2018-07-12T09:50:48.183Z,6.30
2018-07-12T09:53:16.291Z,7.00
2018-07-12T09:55:44.410Z,4.83
2018-07-12T09:58:18.004Z,5.90
2018-07-12T10:00:51.558Z,5.87
2018-07-12T10:03:21.139Z,5.67
2018-07-12T10:05:54.595Z,5.50
2018-07-12T10:08:28.051Z,5.27
2018-07-12T10:11:01.518Z,5.37
2018-07-12T10:13:35.213Z,5.20
2018-07-12T10:16:08.527Z,5.17
2018-07-12T10:18:36.731Z,4.63
2018-07-12T10:21:04.945Z,5.10
2018-07-12T10:23:33.059Z,4.37
2018-07-12T10:26:01.139Z,4.67
2018-07-12T10:28:29.343Z,4.27
2018-07-12T10:30:57.423Z,4.53
2018-07-12T10:33:25.828Z,3.73
2018-07-12T10:35:53.908Z,4.00
2018-07-12T10:38:22.002Z,3.63
2018-07-12T10:40:50.091Z,3.47
2018-07-12T10:43:18.206Z,3.70
2018-07-12T10:45:46.299Z,3.20
2018-07-12T10:48:14.727Z,3.43
2018-07-12T10:50:42.819Z,3.17
2018-07-12T10:53:10.923Z,3.17
2018-07-12T10:55:39.026Z,3.50
2018-07-12T10:58:07.118Z,3.80
2018-07-12T11:00:35.219Z,3.37
2018-07-12T11:03:03.318Z,3.30
2018-07-12T11:05:31.747Z,3.70
2018-07-12T11:07:59.832Z,4.07
2018-07-12T11:10:27.980Z,4.20
2018-07-12T11:13:01.542Z,3.90
2018-07-12T11:15:29.691Z,3.70
2018-07-12T11:17:57.911Z,4.00
2018-07-12T11:20:26.003Z,3.70
2018-07-12T11:22:54.103Z,3.83
2018-07-12T11:25:22.286Z,4.33
2018-07-12T11:27:50.652Z,3.50
2018-07-12T11:30:18.964Z,3.93
2018-07-12T11:32:46.993Z,3.50
2018-07-12T11:35:15.097Z,3.40
2018-07-12T11:37:43.222Z,4.43
2018-07-12T11:40:11.325Z,3.60
2018-07-12T11:42:39.682Z,4.20
2018-07-12T11:45:07.775Z,4.67
2018-07-12T11:47:35.851Z,3.97
2018-07-12T11:50:03.959Z,3.50
2018-07-12T11:52:32.097Z,3.20
2018-07-12T11:55:00.187Z,3.90
2018-07-12T11:57:28.360Z,3.90
2018-07-12T11:59:56.744Z,3.83
2018-07-12T12:02:24.819Z,3.63
2018-07-12T12:04:53.167Z,3.87
2018-07-12T12:07:21.580Z,4.90
2018-07-12T12:09:49.969Z,4.30
2018-07-12T12:12:18.372Z,4.60
2018-07-12T12:14:46.774Z,5.13
2018-07-12T12:17:14.888Z,4.27
2018-07-12T12:19:42.991Z,4.20
2018-07-12T12:22:11.083Z,4.00
2018-07-12T12:24:39.172Z,4.17
2018-07-12T12:27:07.371Z,4.27
2018-07-12T12:29:35.440Z,4.90
2018-07-12T12:32:03.543Z,4.87
2018-07-12T12:34:31.723Z,4.07
2018-07-12T12:36:59.823Z,3.17
2018-07-12T12:39:27.923Z,4.70
2018-07-12T12:41:56.046Z,4.53
2018-07-12T12:44:24.116Z,4.20
2018-07-12T12:46:52.217Z,4.00
2018-07-12T12:49:20.332Z,4.37
2018-07-12T12:51:48.443Z,4.00
2018-07-12T12:54:16.680Z,4.07
2018-07-12T12:56:44.818Z,4.37
2018-07-12T12:59:12.888Z,6.33
2018-07-12T13:01:41.003Z,4.23
2018-07-12T13:04:09.099Z,4.97
2018-07-12T13:06:37.199Z,4.90
2018-07-12T13:09:06.063Z,4.57
2018-07-12T13:11:34.156Z,3.80
2018-07-12T13:14:02.267Z,5.00
2018-07-12T13:16:30.368Z,4.60
2018-07-12T13:18:58.591Z,6.53
2018-07-12T13:21:26.695Z,4.40
2018-07-12T13:23:54.776Z,4.80
2018-07-12T13:26:22.940Z,4.00
2018-07-12T13:28:51.056Z,4.27
2018-07-12T13:31:19.134Z,4.57
2018-07-12T13:33:47.668Z,3.90
2018-07-12T13:36:16.551Z,3.80
2018-07-12T13:38:45.074Z,4.27
2018-07-12T13:41:13.739Z,3.60
2018-07-12T13:43:43.226Z,3.70
2018-07-12T13:46:12.142Z,2.93
2018-07-12T13:48:41.926Z,3.10
2018-07-12T13:51:10.491Z,2.50
2018-07-12T13:53:40.136Z,2.40
2018-07-12T13:56:09.668Z,2.57
2018-07-12T13:58:38.809Z,2.87
2018-07-12T14:01:08.328Z,3.47
2018-07-12T14:03:36.483Z,3.10
2018-07-12T14:06:05.962Z,3.60
2018-07-12T14:08:35.571Z,3.23
2018-07-12T14:11:04.571Z,3.87
2018-07-12T14:13:33.031Z,4.10
2018-07-12T14:16:01.896Z,3.37
2018-07-12T14:18:31.315Z,3.63
2018-07-12T14:20:59.792Z,3.20
2018-07-12T14:23:28.024Z,3.47
2018-07-12T14:25:58.923Z,3.83
2018-07-12T14:28:48.068Z,3.73
2018-07-12T14:31:21.866Z,3.40
2018-07-12T14:33:50.702Z,3.43
2018-07-12T14:36:25.139Z,3.27
2018-07-12T14:38:55.804Z,3.10
2018-07-12T14:41:25.253Z,3.00
2018-07-12T14:43:53.721Z,3.07
